EDDL/DUS METAR and TAF weather

Enter ICAO airport designator
Station Type Date Time Source
EDDL METAR 2018/07/21 11:20 UTC NOAA

EDDL 211120Z VRB05KT CAVOK 28/11 Q1011 NOSIG


Station Type Date Time Source
EDDL Decoded METAR 2018/07/21 11:20 UTC NOAA

Duesseldorf, Germany (EDDL) 51-18N 006-46E 41M
Jul 21, 2018 - 07:20 AM EDT / 2018.07.21 1120 UTC
Wind: Variable at 6 MPH (5 KT):0
Visibility: greater than 7 mile(s):0
Temperature: 82 F (28 C)
Dew Point: 51 F (11 C)
Relative Humidity: 34%
Pressure (altimeter): 29.85 in. Hg (1011 hPa)
ob: EDDL 211120Z VRB05KT CAVOK 28/11 Q1011 NOSIG
cycle: 11

Station Type Date Time Source
EDDL TAF 2018/07/21 12:30 UTC NOAA

TAF EDDL 211100Z 2112/2218 30007KT CAVOK PROB30
TEMPO 2114/2118 20012KT SHRA SCT050CB


Example: see airport list